createdAt,value
2022-07-27T00:00:02.296Z,1016.85
2022-07-27T00:05:02.934Z,1016.8
2022-07-27T00:10:02.810Z,1016.84
2022-07-27T00:15:02.438Z,1016.86
2022-07-27T00:20:03.158Z,1016.83
2022-07-27T00:25:02.982Z,1016.8
2022-07-27T00:30:02.982Z,1016.92
2022-07-27T00:35:02.631Z,1016.79
2022-07-27T00:40:02.373Z,1016.8
2022-07-27T00:45:03.133Z,1016.83
2022-07-27T00:50:03.000Z,1016.82
2022-07-27T00:55:04.150Z,1016.93
2022-07-27T01:00:02.447Z,1016.93
2022-07-27T01:05:03.191Z,1017.03
2022-07-27T01:10:02.301Z,1017.06
2022-07-27T01:15:02.701Z,1017.03
2022-07-27T01:20:02.386Z,1016.99
2022-07-27T01:25:03.111Z,1017.18
2022-07-27T01:30:03.103Z,1017.21
2022-07-27T01:35:02.829Z,1017.17
2022-07-27T01:40:02.536Z,1017.08
2022-07-27T01:45:02.496Z,1017.13
2022-07-27T01:50:02.538Z,1017.21
2022-07-27T01:55:03.527Z,1017.26
2022-07-27T02:00:03.223Z,1017.12
2022-07-27T02:05:03.031Z,1017.2
2022-07-27T02:10:02.664Z,1017.22
2022-07-27T02:15:03.785Z,1017.2
2022-07-27T02:20:03.000Z,1017.24
2022-07-27T02:25:02.563Z,1017.31
2022-07-27T02:30:02.419Z,1017.46
2022-07-27T02:35:03.108Z,1017.48
2022-07-27T02:40:03.026Z,1017.4
2022-07-27T02:45:02.931Z,1017.48
2022-07-27T02:50:02.622Z,1017.41
2022-07-27T02:55:03.590Z,1017.38
2022-07-27T03:00:03.135Z,1017.43
2022-07-27T03:05:02.955Z,1017.41
2022-07-27T03:10:02.497Z,1017.44
2022-07-27T03:15:02.405Z,1017.46
2022-07-27T03:20:03.082Z,1017.39
2022-07-27T03:25:03.005Z,1017.51
2022-07-27T03:30:02.867Z,1017.49
2022-07-27T03:35:02.545Z,1017.38
2022-07-27T03:40:02.359Z,1017.41
2022-07-27T03:45:03.049Z,1017.35
2022-07-27T03:50:03.000Z,1017.32
2022-07-27T03:55:03.860Z,1017.35
2022-07-27T04:00:02.449Z,1017.39
2022-07-27T04:05:02.672Z,1017.44
2022-07-27T04:10:02.476Z,1017.47
2022-07-27T04:15:03.235Z,1017.49
2022-07-27T04:20:02.951Z,1017.57
2022-07-27T04:25:02.785Z,1017.44
2022-07-27T04:30:05.684Z,1017.39
2022-07-27T04:35:02.388Z,1017.53
2022-07-27T04:40:03.125Z,1017.51
2022-07-27T04:45:02.929Z,1017.46
2022-07-27T04:50:02.590Z,1017.57
2022-07-27T04:55:03.825Z,1017.62
2022-07-27T05:00:02.304Z,1017.69
2022-07-27T05:05:02.186Z,1017.79
2022-07-27T05:10:02.882Z,1017.89
2022-07-27T05:15:02.707Z,1017.84
2022-07-27T05:20:02.365Z,1017.92
2022-07-27T05:25:03.079Z,1018.03
2022-07-27T05:30:02.897Z,1018.12
2022-07-27T05:35:02.574Z,1018.11
2022-07-27T05:40:02.342Z,1018.19
2022-07-27T05:45:03.072Z,1018.21
2022-07-27T05:50:02.790Z,1018.21
2022-07-27T05:55:03.567Z,1018.24
2022-07-27T06:00:02.318Z,1018.24
2022-07-27T06:05:03.032Z,1018.35
2022-07-27T06:10:02.837Z,1018.47
2022-07-27T06:15:02.693Z,1018.41
2022-07-27T06:20:02.377Z,1018.47
2022-07-27T06:25:03.083Z,1018.54
2022-07-27T06:30:02.867Z,1018.48
2022-07-27T06:35:02.593Z,1018.48
2022-07-27T06:40:03.172Z,1018.61
2022-07-27T06:45:02.916Z,1018.5
2022-07-27T06:50:02.654Z,1018.52
2022-07-27T06:55:04.126Z,1018.49
2022-07-27T07:00:02.374Z,1018.47
2022-07-27T07:05:03.030Z,1018.38
2022-07-27T07:10:02.793Z,1018.43
2022-07-27T07:15:02.631Z,1018.44
2022-07-27T07:20:02.321Z,1018.48
2022-07-27T07:25:03.362Z,1018.56
2022-07-27T07:30:02.849Z,1018.63
2022-07-27T07:35:02.428Z,1018.54
2022-07-27T07:40:18.570Z,1018.6
2022-07-27T07:45:03.015Z,1018.49
2022-07-27T07:50:02.574Z,1018.57
2022-07-27T07:55:03.309Z,1018.59
2022-07-27T08:00:02.982Z,1018.56
2022-07-27T08:05:02.671Z,1018.63
2022-07-27T08:10:02.352Z,1018.63
2022-07-27T08:15:03.075Z,1018.64
2022-07-27T08:20:03.111Z,1018.64
2022-07-27T08:25:02.882Z,1018.6
2022-07-27T08:30:03.033Z,1018.59
2022-07-27T08:35:02.676Z,1018.71
2022-07-27T08:45:02.804Z,1018.6
2022-07-27T08:50:02.451Z,1018.65
2022-07-27T08:55:04.128Z,1018.67
2022-07-27T09:00:03.042Z,1018.62
2022-07-27T09:05:02.730Z,1018.64
2022-07-27T09:10:02.447Z,1018.63
2022-07-27T09:15:02.306Z,1018.67
2022-07-27T09:20:03.155Z,1018.59
2022-07-27T09:25:03.062Z,1018.67
2022-07-27T09:30:02.860Z,1018.65
2022-07-27T09:35:02.560Z,1018.65
2022-07-27T09:40:02.432Z,1018.6
2022-07-27T09:45:03.155Z,1018.58
2022-07-27T09:50:03.043Z,1018.63
2022-07-27T09:55:04.082Z,1018.51
2022-07-27T10:00:02.624Z,1018.46
2022-07-27T10:05:02.446Z,1018.57
2022-07-27T10:10:02.374Z,1018.49
2022-07-27T10:15:02.220Z,1018.45
2022-07-27T10:20:02.919Z,1018.41
2022-07-27T10:25:02.594Z,1018.45
2022-07-27T10:30:02.301Z,1018.51
2022-07-27T10:35:02.967Z,1018.46
2022-07-27T10:40:02.773Z,1018.46
2022-07-27T10:45:02.553Z,1018.44
2022-07-27T10:50:02.267Z,1018.39
2022-07-27T10:55:04.165Z,1018.27
2022-07-27T11:00:10.971Z,1018.32
2022-07-27T11:05:02.577Z,1018.37
2022-07-27T11:10:04.279Z,1018.29
2022-07-27T11:15:02.240Z,1018.29
2022-07-27T11:20:03.057Z,1018.3
2022-07-27T11:25:02.793Z,1018.28
2022-07-27T11:30:02.467Z,1018.23
2022-07-27T11:35:06.507Z,1018.25
2022-07-27T11:40:04.227Z,1018.3
2022-07-27T11:45:03.106Z,1018.28
2022-07-27T11:50:03.055Z,1018.21
2022-07-27T11:55:03.853Z,1018.18
2022-07-27T12:00:02.370Z,1018.16
2022-07-27T12:05:03.494Z,1018.26
2022-07-27T12:10:03.041Z,1018.07
2022-07-27T12:15:11.545Z,1018.08
2022-07-27T12:20:02.507Z,1017.97
2022-07-27T12:25:02.274Z,1018.08
2022-07-27T12:30:03.067Z,1018.16
2022-07-27T12:35:02.827Z,1018.11
2022-07-27T12:40:02.537Z,1018.03
2022-07-27T12:45:03.174Z,1017.98
2022-07-27T12:50:02.831Z,1018.08
2022-07-27T12:55:03.632Z,1018.1
2022-07-27T13:00:02.288Z,1017.96
2022-07-27T13:05:03.046Z,1018.03
2022-07-27T13:10:04.157Z,1018.04
2022-07-27T13:15:02.520Z,1018.01
2022-07-27T13:20:02.318Z,1017.96
2022-07-27T13:25:02.262Z,1018.03
2022-07-27T13:30:02.243Z,1017.94
2022-07-27T13:35:03.125Z,1017.88
2022-07-27T13:40:03.087Z,1017.87
2022-07-27T13:45:08.992Z,1017.94
2022-07-27T13:50:02.893Z,1017.97
2022-07-27T13:55:08.253Z,1018.03
2022-07-27T14:00:03.038Z,1017.95
2022-07-27T14:05:04.286Z,1017.95
2022-07-27T14:10:02.835Z,1017.98
2022-07-27T14:15:02.275Z,1017.96
2022-07-27T14:20:03.162Z,1017.88
2022-07-27T14:25:02.996Z,1017.8
2022-07-27T14:30:02.699Z,1017.86
2022-07-27T14:35:02.345Z,1017.86
2022-07-27T14:40:03.049Z,1017.81
2022-07-27T14:45:02.871Z,1017.8
2022-07-27T14:50:03.095Z,1017.84
2022-07-27T14:55:06.345Z,1017.69
2022-07-27T15:00:02.912Z,1017.77
2022-07-27T15:05:02.439Z,1017.8
2022-07-27T15:10:02.376Z,1017.86
2022-07-27T15:15:03.136Z,1017.98
2022-07-27T15:20:02.881Z,1017.89
2022-07-27T15:25:02.591Z,1017.9
2022-07-27T15:30:02.273Z,1017.75
2022-07-27T15:35:02.937Z,1017.77
2022-07-27T15:40:02.210Z,1017.78
2022-07-27T15:45:02.985Z,1017.76
2022-07-27T15:50:02.738Z,1017.57
2022-07-27T15:55:03.978Z,1017.72
2022-07-27T16:00:02.368Z,1017.53
2022-07-27T16:05:02.999Z,1017.6
2022-07-27T16:10:02.550Z,1017.61
2022-07-27T16:15:02.308Z,1017.57
2022-07-27T16:20:03.159Z,1017.54
2022-07-27T16:25:03.119Z,1017.46
2022-07-27T16:30:02.862Z,1017.44
2022-07-27T16:35:02.561Z,1017.4
2022-07-27T16:40:02.319Z,1017.32
2022-07-27T16:45:02.261Z,1017.35
2022-07-27T16:50:03.099Z,1017.37
2022-07-27T16:55:03.957Z,1017.43
2022-07-27T17:00:02.843Z,1017.32
2022-07-27T17:05:02.492Z,1017.31
2022-07-27T17:10:02.229Z,1017.31
2022-07-27T17:15:02.969Z,1017.23
2022-07-27T17:20:02.790Z,1017.27
2022-07-27T17:25:02.597Z,1017.24
2022-07-27T17:30:03.189Z,1017.25
2022-07-27T17:35:02.789Z,1017.31
2022-07-27T17:40:02.502Z,1017.31
2022-07-27T17:45:02.288Z,1017.36
2022-07-27T17:50:02.938Z,1017.42
2022-07-27T17:55:04.215Z,1017.38
2022-07-27T18:00:02.597Z,1017.44
2022-07-27T18:05:02.272Z,1017.42
2022-07-27T18:10:03.066Z,1017.38
2022-07-27T18:15:02.496Z,1017.48
2022-07-27T18:20:02.322Z,1017.49
2022-07-27T18:25:02.207Z,1017.43
2022-07-27T18:30:03.120Z,1017.47
2022-07-27T18:35:02.825Z,1017.48
2022-07-27T18:40:02.527Z,1017.54
2022-07-27T18:45:02.289Z,1017.55
2022-07-27T18:50:02.927Z,1017.5
2022-07-27T18:55:04.061Z,1017.57
2022-07-27T19:00:02.307Z,1017.51
2022-07-27T19:05:03.014Z,1017.53
2022-07-27T19:10:02.596Z,1017.66
2022-07-27T19:15:02.373Z,1017.73
2022-07-27T19:20:02.253Z,1017.81
2022-07-27T19:25:02.936Z,1018.01
2022-07-27T19:30:02.873Z,1018.01
2022-07-27T19:35:02.468Z,1018.07
2022-07-27T19:40:14.700Z,1018.21
2022-07-27T19:45:02.585Z,1018.19
2022-07-27T19:50:03.136Z,1018.16
2022-07-27T19:55:03.742Z,1018.22
2022-07-27T20:00:02.285Z,1018.35
2022-07-27T20:05:03.007Z,1018.37
2022-07-27T20:10:03.016Z,1018.32
2022-07-27T20:15:02.793Z,1018.4
2022-07-27T20:20:02.567Z,1018.38
2022-07-27T20:25:02.324Z,1018.46
2022-07-27T20:30:03.064Z,1018.45
2022-07-27T20:35:03.146Z,1018.51
2022-07-27T20:40:02.988Z,1018.54
2022-07-27T20:45:02.581Z,1018.64
2022-07-27T20:50:02.319Z,1018.69
2022-07-27T20:55:04.061Z,1018.68
2022-07-27T21:00:02.842Z,1018.74
2022-07-27T21:05:02.493Z,1018.72
2022-07-27T21:10:02.215Z,1018.82
2022-07-27T21:15:03.005Z,1018.83
2022-07-27T21:20:02.795Z,1018.9
2022-07-27T21:25:02.584Z,1018.9
2022-07-27T21:30:02.280Z,1018.89
2022-07-27T21:35:06.815Z,1018.95
2022-07-27T21:40:03.242Z,1018.96
2022-07-27T21:45:02.823Z,1019.03
2022-07-27T21:50:02.354Z,1019.07
2022-07-27T21:55:04.617Z,1019.1
2022-07-27T22:00:02.930Z,1019.17
2022-07-27T22:05:02.331Z,1019.15
2022-07-27T22:10:03.115Z,1019.2
2022-07-27T22:15:03.100Z,1019.23
2022-07-27T22:20:02.773Z,1019.33
2022-07-27T22:25:02.452Z,1019.35
2022-07-27T22:30:03.198Z,1019.37
2022-07-27T22:35:02.906Z,1019.43
2022-07-27T22:40:02.701Z,1019.58
2022-07-27T22:45:02.512Z,1019.59
2022-07-27T22:50:03.193Z,1019.61
2022-07-27T22:55:03.798Z,1019.57
2022-07-27T23:00:03.065Z,1019.56
2022-07-27T23:05:03.180Z,1019.59
2022-07-27T23:10:02.972Z,1019.6
2022-07-27T23:15:02.743Z,1019.63
2022-07-27T23:20:02.624Z,1019.71
2022-07-27T23:25:02.329Z,1019.75
2022-07-27T23:30:02.452Z,1019.88
2022-07-27T23:35:02.241Z,1019.86
2022-07-27T23:40:03.111Z,1019.81
2022-07-27T23:45:02.827Z,1019.85
2022-07-27T23:50:02.499Z,1019.85
2022-07-27T23:55:03.764Z,1019.88
